sensor_id;sensor_type;location;lat;lon;timestamp;P1;durP1;ratioP1;P2;durP2;ratioP2
45676;SDS011;31390;51.186;6.830;2023-02-01T00:02:24;33.37;;;20.80;;
45676;SDS011;31390;51.186;6.830;2023-02-01T00:04:51;32.90;;;19.10;;
45676;SDS011;31390;51.186;6.830;2023-02-01T00:07:17;31.17;;;20.27;;
45676;SDS011;31390;51.186;6.830;2023-02-01T00:09:44;28.67;;;19.30;;
45676;SDS011;31390;51.186;6.830;2023-02-01T00:12:10;37.50;;;21.27;;
45676;SDS011;31390;51.186;6.830;2023-02-01T00:14:38;32.23;;;19.97;;
45676;SDS011;31390;51.186;6.830;2023-02-01T00:17:05;36.43;;;22.20;;
45676;SDS011;31390;51.186;6.830;2023-02-01T00:19:35;31.70;;;21.67;;
45676;SDS011;31390;51.186;6.830;2023-02-01T00:22:01;31.63;;;20.63;;
45676;SDS011;31390;51.186;6.830;2023-02-01T00:24:28;32.60;;;20.07;;
45676;SDS011;31390;51.186;6.830;2023-02-01T00:26:55;29.93;;;19.37;;
45676;SDS011;31390;51.186;6.830;2023-02-01T00:29:22;32.67;;;19.67;;
45676;SDS011;31390;51.186;6.830;2023-02-01T00:31:49;28.00;;;18.07;;
45676;SDS011;31390;51.186;6.830;2023-02-01T00:34:16;38.07;;;19.33;;
45676;SDS011;31390;51.186;6.830;2023-02-01T00:36:43;28.53;;;17.37;;
45676;SDS011;31390;51.186;6.830;2023-02-01T00:39:10;27.70;;;16.10;;
45676;SDS011;31390;51.186;6.830;2023-02-01T00:41:37;26.23;;;15.43;;
45676;SDS011;31390;51.186;6.830;2023-02-01T00:44:04;24.70;;;15.93;;
45676;SDS011;31390;51.186;6.830;2023-02-01T00:46:30;29.77;;;15.57;;
45676;SDS011;31390;51.186;6.830;2023-02-01T00:48:57;25.73;;;13.83;;
45676;SDS011;31390;51.186;6.830;2023-02-01T00:51:25;24.37;;;14.10;;
45676;SDS011;31390;51.186;6.830;2023-02-01T00:53:54;18.60;;;13.23;;
45676;SDS011;31390;51.186;6.830;2023-02-01T00:56:21;23.50;;;13.30;;
45676;SDS011;31390;51.186;6.830;2023-02-01T00:58:47;20.40;;;12.97;;
45676;SDS011;31390;51.186;6.830;2023-02-01T01:03:41;24.53;;;12.70;;
45676;SDS011;31390;51.186;6.830;2023-02-01T01:06:10;23.47;;;11.90;;
45676;SDS011;31390;51.186;6.830;2023-02-01T01:08:37;26.50;;;11.87;;
45676;SDS011;31390;51.186;6.830;2023-02-01T01:11:08;20.73;;;10.27;;
45676;SDS011;31390;51.186;6.830;2023-02-01T01:13:35;23.73;;;10.57;;
45676;SDS011;31390;51.186;6.830;2023-02-01T01:16:02;20.23;;;10.07;;
45676;SDS011;31390;51.186;6.830;2023-02-01T01:18:30;19.88;;;9.40;;
45676;SDS011;31390;51.186;6.830;2023-02-01T01:20:57;18.23;;;9.53;;
45676;SDS011;31390;51.186;6.830;2023-02-01T01:23:23;19.27;;;7.83;;
45676;SDS011;31390;51.186;6.830;2023-02-01T01:25:50;16.73;;;7.57;;
45676;SDS011;31390;51.186;6.830;2023-02-01T01:28:16;20.83;;;8.15;;
45676;SDS011;31390;51.186;6.830;2023-02-01T01:30:43;18.17;;;7.27;;
45676;SDS011;31390;51.186;6.830;2023-02-01T01:33:10;18.57;;;7.77;;
45676;SDS011;31390;51.186;6.830;2023-02-01T01:35:36;13.30;;;6.93;;
45676;SDS011;31390;51.186;6.830;2023-02-01T01:38:03;12.67;;;6.20;;
45676;SDS011;31390;51.186;6.830;2023-02-01T01:40:30;20.48;;;6.75;;
45676;SDS011;31390;51.186;6.830;2023-02-01T01:42:57;20.33;;;7.23;;
45676;SDS011;31390;51.186;6.830;2023-02-01T01:45:28;14.10;;;6.30;;
45676;SDS011;31390;51.186;6.830;2023-02-01T01:47:56;17.50;;;6.73;;
45676;SDS011;31390;51.186;6.830;2023-02-01T01:50:31;13.33;;;5.57;;
45676;SDS011;31390;51.186;6.830;2023-02-01T01:53:00;19.90;;;6.20;;
45676;SDS011;31390;51.186;6.830;2023-02-01T01:55:27;20.57;;;6.60;;
45676;SDS011;31390;51.186;6.830;2023-02-01T01:57:58;15.73;;;5.43;;
45676;SDS011;31390;51.186;6.830;2023-02-01T02:00:25;13.83;;;5.50;;
45676;SDS011;31390;51.186;6.830;2023-02-01T02:02:57;13.93;;;5.57;;
45676;SDS011;31390;51.186;6.830;2023-02-01T02:05:24;16.83;;;5.83;;
45676;SDS011;31390;51.186;6.830;2023-02-01T02:07:52;15.50;;;5.23;;
45676;SDS011;31390;51.186;6.830;2023-02-01T02:10:19;19.23;;;5.90;;
45676;SDS011;31390;51.186;6.830;2023-02-01T02:12:46;12.67;;;5.00;;
45676;SDS011;31390;51.186;6.830;2023-02-01T02:15:14;13.50;;;5.13;;
45676;SDS011;31390;51.186;6.830;2023-02-01T02:17:44;15.27;;;5.27;;
45676;SDS011;31390;51.186;6.830;2023-02-01T02:25:44;15.60;;;5.73;;
45676;SDS011;31390;51.186;6.830;2023-02-01T02:31:00;11.90;;;4.87;;
45676;SDS011;31390;51.186;6.830;2023-02-01T02:33:48;14.67;;;5.57;;
45676;SDS011;31390;51.186;6.830;2023-02-01T02:36:23;19.93;;;5.57;;
45676;SDS011;31390;51.186;6.830;2023-02-01T02:39:04;17.83;;;5.33;;
45676;SDS011;31390;51.186;6.830;2023-02-01T02:41:57;14.47;;;5.07;;
45676;SDS011;31390;51.186;6.830;2023-02-01T02:44:43;17.43;;;5.83;;
45676;SDS011;31390;51.186;6.830;2023-02-01T02:47:34;16.10;;;5.37;;
45676;SDS011;31390;51.186;6.830;2023-02-01T02:50:15;19.33;;;5.73;;
45676;SDS011;31390;51.186;6.830;2023-02-01T02:53:18;16.50;;;4.67;;
45676;SDS011;31390;51.186;6.830;2023-02-01T02:56:05;12.80;;;5.17;;
45676;SDS011;31390;51.186;6.830;2023-02-01T02:58:51;13.03;;;5.50;;
45676;SDS011;31390;51.186;6.830;2023-02-01T03:01:37;23.13;;;6.17;;
45676;SDS011;31390;51.186;6.830;2023-02-01T03:04:23;12.30;;;5.13;;
45676;SDS011;31390;51.186;6.830;2023-02-01T03:06:52;16.97;;;6.00;;
45676;SDS011;31390;51.186;6.830;2023-02-01T03:11:46;13.87;;;5.70;;
45676;SDS011;31390;51.186;6.830;2023-02-01T03:14:32;17.97;;;5.50;;
45676;SDS011;31390;51.186;6.830;2023-02-01T03:17:03;15.60;;;5.90;;
45676;SDS011;31390;51.186;6.830;2023-02-01T03:19:35;16.87;;;5.50;;
45676;SDS011;31390;51.186;6.830;2023-02-01T03:22:07;16.60;;;5.43;;
45676;SDS011;31390;51.186;6.830;2023-02-01T03:24:39;16.67;;;5.80;;
45676;SDS011;31390;51.186;6.830;2023-02-01T03:29:48;18.83;;;5.50;;
45676;SDS011;31390;51.186;6.830;2023-02-01T03:32:16;16.63;;;5.47;;
45676;SDS011;31390;51.186;6.830;2023-02-01T03:34:43;17.57;;;6.33;;
45676;SDS011;31390;51.186;6.830;2023-02-01T03:37:11;16.33;;;5.90;;
45676;SDS011;31390;51.186;6.830;2023-02-01T03:39:47;14.30;;;5.53;;
45676;SDS011;31390;51.186;6.830;2023-02-01T03:42:18;18.70;;;5.83;;
45676;SDS011;31390;51.186;6.830;2023-02-01T03:45:08;18.10;;;5.60;;
45676;SDS011;31390;51.186;6.830;2023-02-01T03:47:37;14.53;;;5.10;;
45676;SDS011;31390;51.186;6.830;2023-02-01T03:50:07;15.33;;;5.37;;
45676;SDS011;31390;51.186;6.830;2023-02-01T03:52:45;21.50;;;5.73;;
45676;SDS011;31390;51.186;6.830;2023-02-01T03:55:14;14.47;;;5.43;;
45676;SDS011;31390;51.186;6.830;2023-02-01T03:57:48;17.00;;;5.97;;
45676;SDS011;31390;51.186;6.830;2023-02-01T04:00:21;17.33;;;5.77;;
45676;SDS011;31390;51.186;6.830;2023-02-01T04:02:49;15.10;;;5.23;;
45676;SDS011;31390;51.186;6.830;2023-02-01T04:05:16;16.00;;;4.93;;
45676;SDS011;31390;51.186;6.830;2023-02-01T04:07:51;14.77;;;5.40;;
45676;SDS011;31390;51.186;6.830;2023-02-01T04:10:17;15.93;;;5.43;;
45676;SDS011;31390;51.186;6.830;2023-02-01T04:12:45;16.60;;;5.80;;
45676;SDS011;31390;51.186;6.830;2023-02-01T04:15:11;15.93;;;4.93;;
45676;SDS011;31390;51.186;6.830;2023-02-01T04:17:38;19.00;;;5.07;;
45676;SDS011;31390;51.186;6.830;2023-02-01T04:20:05;18.93;;;5.30;;
45676;SDS011;31390;51.186;6.830;2023-02-01T04:22:31;15.83;;;5.40;;
45676;SDS011;31390;51.186;6.830;2023-02-01T04:24:58;14.17;;;5.40;;
45676;SDS011;31390;51.186;6.830;2023-02-01T04:27:24;17.60;;;5.83;;
45676;SDS011;31390;51.186;6.830;2023-02-01T04:29:51;16.80;;;5.30;;
45676;SDS011;31390;51.186;6.830;2023-02-01T04:32:18;17.13;;;4.93;;
45676;SDS011;31390;51.186;6.830;2023-02-01T04:34:45;15.80;;;5.67;;
45676;SDS011;31390;51.186;6.830;2023-02-01T04:37:12;17.10;;;5.63;;
45676;SDS011;31390;51.186;6.830;2023-02-01T04:39:38;16.83;;;5.83;;
45676;SDS011;31390;51.186;6.830;2023-02-01T04:42:05;16.90;;;5.90;;
45676;SDS011;31390;51.186;6.830;2023-02-01T04:44:31;18.97;;;6.03;;
45676;SDS011;31390;51.186;6.830;2023-02-01T04:46:58;16.37;;;5.03;;
45676;SDS011;31390;51.186;6.830;2023-02-01T04:49:25;14.93;;;5.13;;
45676;SDS011;31390;51.186;6.830;2023-02-01T04:51:53;17.57;;;5.40;;
45676;SDS011;31390;51.186;6.830;2023-02-01T04:54:19;22.17;;;5.63;;
45676;SDS011;31390;51.186;6.830;2023-02-01T04:56:45;19.07;;;5.77;;
45676;SDS011;31390;51.186;6.830;2023-02-01T04:59:12;14.23;;;5.53;;
45676;SDS011;31390;51.186;6.830;2023-02-01T05:01:38;20.77;;;6.00;;
45676;SDS011;31390;51.186;6.830;2023-02-01T05:04:05;18.23;;;6.00;;
45676;SDS011;31390;51.186;6.830;2023-02-01T05:06:32;17.73;;;5.50;;
45676;SDS011;31390;51.186;6.830;2023-02-01T05:08:58;25.27;;;6.27;;
45676;SDS011;31390;51.186;6.830;2023-02-01T05:11:25;23.67;;;6.07;;
45676;SDS011;31390;51.186;6.830;2023-02-01T05:14:10;17.93;;;5.83;;
45676;SDS011;31390;51.186;6.830;2023-02-01T05:16:37;14.47;;;4.90;;
45676;SDS011;31390;51.186;6.830;2023-02-01T05:19:03;15.50;;;5.53;;
45676;SDS011;31390;51.186;6.830;2023-02-01T05:21:30;15.73;;;5.27;;
45676;SDS011;31390;51.186;6.830;2023-02-01T05:23:56;15.43;;;5.40;;
45676;SDS011;31390;51.186;6.830;2023-02-01T05:27:01;18.90;;;5.63;;
45676;SDS011;31390;51.186;6.830;2023-02-01T05:29:28;16.13;;;5.70;;
45676;SDS011;31390;51.186;6.830;2023-02-01T05:31:54;16.33;;;5.77;;
45676;SDS011;31390;51.186;6.830;2023-02-01T05:34:21;18.33;;;6.93;;
45676;SDS011;31390;51.186;6.830;2023-02-01T05:36:48;17.60;;;5.10;;
45676;SDS011;31390;51.186;6.830;2023-02-01T05:39:14;18.83;;;5.93;;
45676;SDS011;31390;51.186;6.830;2023-02-01T05:41:41;22.73;;;6.10;;
45676;SDS011;31390;51.186;6.830;2023-02-01T05:44:08;24.07;;;5.93;;
45676;SDS011;31390;51.186;6.830;2023-02-01T05:46:34;21.87;;;5.83;;
45676;SDS011;31390;51.186;6.830;2023-02-01T05:49:02;16.77;;;4.80;;
45676;SDS011;31390;51.186;6.830;2023-02-01T05:51:28;16.27;;;5.17;;
45676;SDS011;31390;51.186;6.830;2023-02-01T05:53:55;16.57;;;5.67;;
45676;SDS011;31390;51.186;6.830;2023-02-01T05:56:21;18.73;;;5.30;;
45676;SDS011;31390;51.186;6.830;2023-02-01T05:58:48;20.40;;;6.33;;
45676;SDS011;31390;51.186;6.830;2023-02-01T06:01:14;18.80;;;5.30;;
45676;SDS011;31390;51.186;6.830;2023-02-01T06:03:41;12.07;;;4.70;;
45676;SDS011;31390;51.186;6.830;2023-02-01T06:06:07;18.33;;;5.40;;
45676;SDS011;31390;51.186;6.830;2023-02-01T06:08:34;17.10;;;5.43;;
45676;SDS011;31390;51.186;6.830;2023-02-01T06:11:02;20.37;;;6.27;;
45676;SDS011;31390;51.186;6.830;2023-02-01T06:13:28;15.67;;;5.53;;
45676;SDS011;31390;51.186;6.830;2023-02-01T06:15:57;16.60;;;5.57;;
45676;SDS011;31390;51.186;6.830;2023-02-01T06:18:24;15.90;;;5.17;;
45676;SDS011;31390;51.186;6.830;2023-02-01T06:20:52;21.07;;;6.13;;
45676;SDS011;31390;51.186;6.830;2023-02-01T06:23:18;16.47;;;5.77;;
45676;SDS011;31390;51.186;6.830;2023-02-01T06:25:46;23.57;;;6.13;;
45676;SDS011;31390;51.186;6.830;2023-02-01T06:28:12;17.27;;;5.30;;
45676;SDS011;31390;51.186;6.830;2023-02-01T06:30:39;17.97;;;5.40;;
45676;SDS011;31390;51.186;6.830;2023-02-01T06:33:09;23.47;;;5.77;;
45676;SDS011;31390;51.186;6.830;2023-02-01T06:35:35;16.73;;;6.00;;
45676;SDS011;31390;51.186;6.830;2023-02-01T06:38:02;17.53;;;5.53;;
45676;SDS011;31390;51.186;6.830;2023-02-01T06:40:28;15.90;;;5.43;;
45676;SDS011;31390;51.186;6.830;2023-02-01T06:42:55;24.07;;;5.70;;
45676;SDS011;31390;51.186;6.830;2023-02-01T06:45:22;16.77;;;5.13;;
45676;SDS011;31390;51.186;6.830;2023-02-01T06:47:48;21.13;;;6.03;;
45676;SDS011;31390;51.186;6.830;2023-02-01T06:50:15;24.70;;;6.47;;
45676;SDS011;31390;51.186;6.830;2023-02-01T06:52:41;15.97;;;5.40;;
45676;SDS011;31390;51.186;6.830;2023-02-01T06:55:08;21.80;;;5.77;;
45676;SDS011;31390;51.186;6.830;2023-02-01T06:57:34;20.87;;;5.90;;
45676;SDS011;31390;51.186;6.830;2023-02-01T07:00:03;16.70;;;5.43;;
45676;SDS011;31390;51.186;6.830;2023-02-01T07:02:29;19.47;;;6.00;;
45676;SDS011;31390;51.186;6.830;2023-02-01T07:04:56;18.40;;;6.30;;
45676;SDS011;31390;51.186;6.830;2023-02-01T07:07:22;18.50;;;5.70;;
45676;SDS011;31390;51.186;6.830;2023-02-01T07:09:49;19.50;;;5.50;;
45676;SDS011;31390;51.186;6.830;2023-02-01T07:12:16;17.53;;;5.77;;
45676;SDS011;31390;51.186;6.830;2023-02-01T07:14:42;19.70;;;5.20;;
45676;SDS011;31390;51.186;6.830;2023-02-01T07:17:10;17.10;;;5.33;;
45676;SDS011;31390;51.186;6.830;2023-02-01T07:19:41;18.60;;;5.67;;
45676;SDS011;31390;51.186;6.830;2023-02-01T07:22:07;16.60;;;5.50;;
45676;SDS011;31390;51.186;6.830;2023-02-01T07:24:34;23.30;;;6.00;;
45676;SDS011;31390;51.186;6.830;2023-02-01T07:27:01;20.47;;;5.33;;
45676;SDS011;31390;51.186;6.830;2023-02-01T07:29:29;21.83;;;5.57;;
45676;SDS011;31390;51.186;6.830;2023-02-01T07:31:56;20.43;;;5.73;;
45676;SDS011;31390;51.186;6.830;2023-02-01T07:34:22;18.97;;;5.73;;
45676;SDS011;31390;51.186;6.830;2023-02-01T07:36:49;18.10;;;5.90;;
45676;SDS011;31390;51.186;6.830;2023-02-01T07:39:18;17.23;;;5.80;;
45676;SDS011;31390;51.186;6.830;2023-02-01T07:41:47;17.43;;;5.63;;
45676;SDS011;31390;51.186;6.830;2023-02-01T07:44:16;18.80;;;5.90;;
45676;SDS011;31390;51.186;6.830;2023-02-01T07:46:49;17.83;;;5.67;;
45676;SDS011;31390;51.186;6.830;2023-02-01T07:49:15;18.83;;;5.87;;
45676;SDS011;31390;51.186;6.830;2023-02-01T07:51:44;18.83;;;5.77;;
45676;SDS011;31390;51.186;6.830;2023-02-01T07:54:10;18.37;;;6.23;;
45676;SDS011;31390;51.186;6.830;2023-02-01T07:56:37;18.53;;;5.43;;
45676;SDS011;31390;51.186;6.830;2023-02-01T07:59:04;22.97;;;6.73;;
45676;SDS011;31390;51.186;6.830;2023-02-01T08:01:30;14.53;;;5.50;;
45676;SDS011;31390;51.186;6.830;2023-02-01T08:03:58;22.03;;;6.73;;
45676;SDS011;31390;51.186;6.830;2023-02-01T08:06:32;23.40;;;6.30;;
45676;SDS011;31390;51.186;6.830;2023-02-01T08:09:01;21.33;;;6.07;;
45676;SDS011;31390;51.186;6.830;2023-02-01T08:11:28;20.90;;;6.07;;
45676;SDS011;31390;51.186;6.830;2023-02-01T08:13:55;16.73;;;5.70;;
45676;SDS011;31390;51.186;6.830;2023-02-01T08:16:22;15.70;;;5.90;;
45676;SDS011;31390;51.186;6.830;2023-02-01T08:18:50;21.87;;;5.37;;
45676;SDS011;31390;51.186;6.830;2023-02-01T08:21:20;21.17;;;5.90;;
45676;SDS011;31390;51.186;6.830;2023-02-01T08:23:49;19.03;;;5.80;;
45676;SDS011;31390;51.186;6.830;2023-02-01T08:26:20;17.57;;;5.73;;
45676;SDS011;31390;51.186;6.830;2023-02-01T08:28:53;18.33;;;5.50;;
45676;SDS011;31390;51.186;6.830;2023-02-01T08:31:21;16.37;;;5.87;;
45676;SDS011;31390;51.186;6.830;2023-02-01T08:33:50;13.53;;;5.50;;
45676;SDS011;31390;51.186;6.830;2023-02-01T08:36:17;20.93;;;6.30;;
45676;SDS011;31390;51.186;6.830;2023-02-01T08:38:44;19.10;;;6.10;;
45676;SDS011;31390;51.186;6.830;2023-02-01T08:41:19;16.87;;;5.43;;
45676;SDS011;31390;51.186;6.830;2023-02-01T08:43:46;23.07;;;6.30;;
45676;SDS011;31390;51.186;6.830;2023-02-01T08:46:14;17.13;;;5.60;;
45676;SDS011;31390;51.186;6.830;2023-02-01T08:48:41;17.87;;;5.60;;
45676;SDS011;31390;51.186;6.830;2023-02-01T08:51:09;22.30;;;6.00;;
45676;SDS011;31390;51.186;6.830;2023-02-01T08:53:37;20.37;;;6.30;;
45676;SDS011;31390;51.186;6.830;2023-02-01T08:56:04;16.90;;;5.70;;
45676;SDS011;31390;51.186;6.830;2023-02-01T08:58:30;17.10;;;5.97;;
45676;SDS011;31390;51.186;6.830;2023-02-01T09:00:57;15.90;;;5.00;;
45676;SDS011;31390;51.186;6.830;2023-02-01T09:03:28;18.93;;;6.13;;
45676;SDS011;31390;51.186;6.830;2023-02-01T09:05:59;15.00;;;5.27;;
45676;SDS011;31390;51.186;6.830;2023-02-01T09:08:28;19.43;;;6.03;;
45676;SDS011;31390;51.186;6.830;2023-02-01T09:11:01;25.50;;;6.77;;
45676;SDS011;31390;51.186;6.830;2023-02-01T09:13:29;22.30;;;6.73;;
45676;SDS011;31390;51.186;6.830;2023-02-01T09:15:56;23.03;;;5.93;;
45676;SDS011;31390;51.186;6.830;2023-02-01T09:18:23;18.30;;;5.67;;
45676;SDS011;31390;51.186;6.830;2023-02-01T09:20:49;23.67;;;6.03;;
45676;SDS011;31390;51.186;6.830;2023-02-01T09:23:16;19.43;;;5.77;;
45676;SDS011;31390;51.186;6.830;2023-02-01T09:25:43;23.35;;;7.07;;
45676;SDS011;31390;51.186;6.830;2023-02-01T09:28:10;20.47;;;5.43;;
45676;SDS011;31390;51.186;6.830;2023-02-01T09:30:36;17.27;;;6.00;;
45676;SDS011;31390;51.186;6.830;2023-02-01T09:33:04;20.23;;;5.65;;
45676;SDS011;31390;51.186;6.830;2023-02-01T09:35:31;20.30;;;6.23;;
45676;SDS011;31390;51.186;6.830;2023-02-01T09:37:58;21.13;;;5.40;;
45676;SDS011;31390;51.186;6.830;2023-02-01T09:40:27;15.30;;;5.53;;
45676;SDS011;31390;51.186;6.830;2023-02-01T09:48:11;26.00;;;5.80;;
45676;SDS011;31390;51.186;6.830;2023-02-01T09:50:41;20.03;;;5.40;;
45676;SDS011;31390;51.186;6.830;2023-02-01T09:53:12;14.97;;;5.23;;
45676;SDS011;31390;51.186;6.830;2023-02-01T09:55:48;20.83;;;6.33;;
45676;SDS011;31390;51.186;6.830;2023-02-01T09:58:22;16.10;;;5.83;;
45676;SDS011;31390;51.186;6.830;2023-02-01T10:00:55;18.63;;;6.03;;
45676;SDS011;31390;51.186;6.830;2023-02-01T10:03:23;17.70;;;5.77;;
45676;SDS011;31390;51.186;6.830;2023-02-01T10:11:27;17.87;;;5.47;;
45676;SDS011;31390;51.186;6.830;2023-02-01T10:16:36;17.57;;;5.47;;
45676;SDS011;31390;51.186;6.830;2023-02-01T10:27:11;14.67;;;5.80;;
45676;SDS011;31390;51.186;6.830;2023-02-01T10:29:54;18.00;;;5.93;;
45676;SDS011;31390;51.186;6.830;2023-02-01T10:32:23;18.30;;;5.97;;
45676;SDS011;31390;51.186;6.830;2023-02-01T10:34:57;18.73;;;6.50;;
45676;SDS011;31390;51.186;6.830;2023-02-01T10:39:55;16.47;;;5.73;;
45676;SDS011;31390;51.186;6.830;2023-02-01T10:42:24;15.57;;;5.33;;
45676;SDS011;31390;51.186;6.830;2023-02-01T10:44:51;19.27;;;6.00;;
45676;SDS011;31390;51.186;6.830;2023-02-01T10:47:20;17.50;;;5.73;;
45676;SDS011;31390;51.186;6.830;2023-02-01T10:50:13;25.88;;;6.50;;
45676;SDS011;31390;51.186;6.830;2023-02-01T10:52:40;15.83;;;5.40;;
45676;SDS011;31390;51.186;6.830;2023-02-01T10:57:57;12.87;;;4.90;;
45676;SDS011;31390;51.186;6.830;2023-02-01T11:00:24;15.90;;;6.03;;
45676;SDS011;31390;51.186;6.830;2023-02-01T11:02:52;18.88;;;6.47;;
45676;SDS011;31390;51.186;6.830;2023-02-01T11:05:18;16.80;;;5.50;;
45676;SDS011;31390;51.186;6.830;2023-02-01T11:07:46;17.35;;;5.68;;
45676;SDS011;31390;51.186;6.830;2023-02-01T11:13:01;18.13;;;6.20;;
45676;SDS011;31390;51.186;6.830;2023-02-01T11:15:29;15.95;;;5.30;;
45676;SDS011;31390;51.186;6.830;2023-02-01T11:17:55;22.33;;;5.75;;
45676;SDS011;31390;51.186;6.830;2023-02-01T11:22:58;20.43;;;5.57;;
45676;SDS011;31390;51.186;6.830;2023-02-01T11:25:26;14.48;;;5.40;;
45676;SDS011;31390;51.186;6.830;2023-02-01T11:27:53;16.60;;;5.60;;
45676;SDS011;31390;51.186;6.830;2023-02-01T11:30:34;13.80;;;5.10;;
45676;SDS011;31390;51.186;6.830;2023-02-01T11:33:03;16.83;;;5.25;;
45676;SDS011;31390;51.186;6.830;2023-02-01T11:35:32;17.20;;;5.45;;
45676;SDS011;31390;51.186;6.830;2023-02-01T11:38:00;14.18;;;5.35;;
45676;SDS011;31390;51.186;6.830;2023-02-01T11:40:37;16.42;;;4.57;;
45676;SDS011;31390;51.186;6.830;2023-02-01T11:43:16;12.75;;;5.70;;
45676;SDS011;31390;51.186;6.830;2023-02-01T11:46:03;14.93;;;5.57;;
45676;SDS011;31390;51.186;6.830;2023-02-01T11:48:34;17.30;;;5.63;;
45676;SDS011;31390;51.186;6.830;2023-02-01T11:51:04;21.58;;;5.15;;
45676;SDS011;31390;51.186;6.830;2023-02-01T11:56:27;19.23;;;4.97;;
45676;SDS011;31390;51.186;6.830;2023-02-01T12:12:12;16.00;;;5.33;;
45676;SDS011;31390;51.186;6.830;2023-02-01T12:22:52;12.30;;;5.00;;
45676;SDS011;31390;51.186;6.830;2023-02-01T12:27:57;14.73;;;5.30;;
45676;SDS011;31390;51.186;6.830;2023-02-01T12:33:12;15.02;;;4.75;;
45676;SDS011;31390;51.186;6.830;2023-02-01T12:38:27;13.38;;;4.93;;
45676;SDS011;31390;51.186;6.830;2023-02-01T12:43:38;15.85;;;5.60;;
45676;SDS011;31390;51.186;6.830;2023-02-01T12:46:11;12.88;;;4.90;;
45676;SDS011;31390;51.186;6.830;2023-02-01T12:48:47;13.95;;;5.10;;
45676;SDS011;31390;51.186;6.830;2023-02-01T12:51:18;14.57;;;5.53;;
45676;SDS011;31390;51.186;6.830;2023-02-01T12:53:52;18.63;;;5.47;;
45676;SDS011;31390;51.186;6.830;2023-02-01T12:57:03;17.47;;;5.53;;
45676;SDS011;31390;51.186;6.830;2023-02-01T13:01:46;12.90;;;5.23;;
45676;SDS011;31390;51.186;6.830;2023-02-01T13:04:17;14.63;;;4.30;;
45676;SDS011;31390;51.186;6.830;2023-02-01T13:06:47;14.02;;;4.57;;
45676;SDS011;31390;51.186;6.830;2023-02-01T13:09:22;12.43;;;4.28;;
45676;SDS011;31390;51.186;6.830;2023-02-01T13:11:49;14.57;;;4.87;;
45676;SDS011;31390;51.186;6.830;2023-02-01T13:16:58;12.60;;;4.63;;
45676;SDS011;31390;51.186;6.830;2023-02-01T13:22:15;13.52;;;3.88;;
45676;SDS011;31390;51.186;6.830;2023-02-01T13:24:50;11.57;;;4.07;;
45676;SDS011;31390;51.186;6.830;2023-02-01T13:27:18;14.38;;;4.53;;
45676;SDS011;31390;51.186;6.830;2023-02-01T13:29:50;15.18;;;4.43;;
45676;SDS011;31390;51.186;6.830;2023-02-01T13:37:56;12.57;;;4.05;;
45676;SDS011;31390;51.186;6.830;2023-02-01T13:42:59;15.63;;;4.47;;
45676;SDS011;31390;51.186;6.830;2023-02-01T13:45:31;14.80;;;4.07;;
45676;SDS011;31390;51.186;6.830;2023-02-01T13:48:00;14.60;;;3.95;;
45676;SDS011;31390;51.186;6.830;2023-02-01T13:50:37;11.73;;;3.50;;
45676;SDS011;31390;51.186;6.830;2023-02-01T13:53:18;14.85;;;4.25;;
45676;SDS011;31390;51.186;6.830;2023-02-01T13:55:50;15.48;;;3.83;;
45676;SDS011;31390;51.186;6.830;2023-02-01T13:58:22;19.20;;;4.33;;
45676;SDS011;31390;51.186;6.830;2023-02-01T14:03:44;13.27;;;4.35;;
45676;SDS011;31390;51.186;6.830;2023-02-01T14:06:18;15.15;;;4.18;;
45676;SDS011;31390;51.186;6.830;2023-02-01T14:11:43;17.08;;;4.22;;
45676;SDS011;31390;51.186;6.830;2023-02-01T14:16:42;20.33;;;4.20;;
45676;SDS011;31390;51.186;6.830;2023-02-01T14:19:18;10.70;;;3.40;;
45676;SDS011;31390;51.186;6.830;2023-02-01T14:21:47;18.50;;;4.75;;
45676;SDS011;31390;51.186;6.830;2023-02-01T14:24:24;13.15;;;3.83;;
45676;SDS011;31390;51.186;6.830;2023-02-01T14:26:53;13.35;;;3.80;;
45676;SDS011;31390;51.186;6.830;2023-02-01T14:29:22;13.85;;;4.13;;
45676;SDS011;31390;51.186;6.830;2023-02-01T14:34:39;13.00;;;3.72;;
45676;SDS011;31390;51.186;6.830;2023-02-01T14:39:48;10.77;;;3.20;;
45676;SDS011;31390;51.186;6.830;2023-02-01T14:44:44;10.00;;;2.95;;
45676;SDS011;31390;51.186;6.830;2023-02-01T14:47:29;13.82;;;3.58;;
45676;SDS011;31390;51.186;6.830;2023-02-01T14:50:02;13.25;;;3.47;;
45676;SDS011;31390;51.186;6.830;2023-02-01T14:57:41;10.23;;;3.60;;
45676;SDS011;31390;51.186;6.830;2023-02-01T15:02:42;11.68;;;3.20;;
45676;SDS011;31390;51.186;6.830;2023-02-01T15:07:57;12.10;;;3.80;;
45676;SDS011;31390;51.186;6.830;2023-02-01T15:10:27;10.30;;;3.53;;
45676;SDS011;31390;51.186;6.830;2023-02-01T15:12:56;12.40;;;4.03;;
45676;SDS011;31390;51.186;6.830;2023-02-01T15:15:25;11.23;;;3.28;;
45676;SDS011;31390;51.186;6.830;2023-02-01T15:17:57;17.33;;;3.90;;
45676;SDS011;31390;51.186;6.830;2023-02-01T15:20:30;12.45;;;3.45;;
45676;SDS011;31390;51.186;6.830;2023-02-01T15:23:05;11.18;;;3.65;;
45676;SDS011;31390;51.186;6.830;2023-02-01T15:25:37;10.55;;;3.45;;
45676;SDS011;31390;51.186;6.830;2023-02-01T15:28:05;12.10;;;3.80;;
45676;SDS011;31390;51.186;6.830;2023-02-01T15:30:50;12.07;;;4.35;;
45676;SDS011;31390;51.186;6.830;2023-02-01T15:33:18;14.27;;;3.60;;
45676;SDS011;31390;51.186;6.830;2023-02-01T15:35:46;14.75;;;3.72;;
45676;SDS011;31390;51.186;6.830;2023-02-01T15:41:09;12.70;;;3.85;;
45676;SDS011;31390;51.186;6.830;2023-02-01T15:43:37;13.88;;;4.05;;
45676;SDS011;31390;51.186;6.830;2023-02-01T15:46:12;14.07;;;4.13;;
45676;SDS011;31390;51.186;6.830;2023-02-01T15:48:46;14.98;;;3.95;;
45676;SDS011;31390;51.186;6.830;2023-02-01T15:51:15;13.13;;;4.15;;
45676;SDS011;31390;51.186;6.830;2023-02-01T15:53:44;8.77;;;3.15;;
45676;SDS011;31390;51.186;6.830;2023-02-01T15:56:12;15.60;;;4.20;;
45676;SDS011;31390;51.186;6.830;2023-02-01T15:58:41;14.00;;;3.95;;
45676;SDS011;31390;51.186;6.830;2023-02-01T16:01:10;20.63;;;4.82;;
45676;SDS011;31390;51.186;6.830;2023-02-01T16:03:39;12.88;;;4.60;;
45676;SDS011;31390;51.186;6.830;2023-02-01T16:06:09;12.85;;;3.97;;
45676;SDS011;31390;51.186;6.830;2023-02-01T16:08:35;13.63;;;3.95;;
45676;SDS011;31390;51.186;6.830;2023-02-01T16:13:35;15.63;;;4.57;;
45676;SDS011;31390;51.186;6.830;2023-02-01T16:16:02;15.10;;;4.28;;
45676;SDS011;31390;51.186;6.830;2023-02-01T16:18:30;16.20;;;4.43;;
45676;SDS011;31390;51.186;6.830;2023-02-01T16:20:56;18.42;;;4.70;;
45676;SDS011;31390;51.186;6.830;2023-02-01T16:23:23;13.05;;;4.13;;
45676;SDS011;31390;51.186;6.830;2023-02-01T16:25:49;20.15;;;4.38;;
45676;SDS011;31390;51.186;6.830;2023-02-01T16:28:16;15.40;;;4.57;;
45676;SDS011;31390;51.186;6.830;2023-02-01T16:30:42;13.93;;;4.05;;
45676;SDS011;31390;51.186;6.830;2023-02-01T16:33:11;14.05;;;4.10;;
45676;SDS011;31390;51.186;6.830;2023-02-01T16:35:41;12.55;;;4.00;;
45676;SDS011;31390;51.186;6.830;2023-02-01T16:38:12;16.23;;;3.77;;
45676;SDS011;31390;51.186;6.830;2023-02-01T16:40:39;13.02;;;3.78;;
45676;SDS011;31390;51.186;6.830;2023-02-01T16:43:16;14.13;;;4.63;;
45676;SDS011;31390;51.186;6.830;2023-02-01T16:45:43;13.40;;;4.38;;
45676;SDS011;31390;51.186;6.830;2023-02-01T16:48:35;15.88;;;3.95;;
45676;SDS011;31390;51.186;6.830;2023-02-01T16:51:01;14.77;;;4.25;;
45676;SDS011;31390;51.186;6.830;2023-02-01T16:53:29;15.73;;;4.60;;
45676;SDS011;31390;51.186;6.830;2023-02-01T16:55:58;14.52;;;3.78;;
45676;SDS011;31390;51.186;6.830;2023-02-01T16:58:25;15.25;;;4.55;;
45676;SDS011;31390;51.186;6.830;2023-02-01T17:00:53;18.35;;;4.50;;